Time;durP1;ratioP1;P1;durP2;ratioP2;P2;SDS_P1;SDS_P2;PMS_P1;PMS_P2;Temp;Humidity;BMP_temperature;BMP_pressure;BME280_temperature;BME280_humidity;BME280_pressure;Samples;Min_cycle;Max_cycle;Signal;HPM_P1;HPM_P2
2022/05/05 00:01:49;;;;;;;4.60;2.80;;;;;;;10.79;35.47;100857.05;104823;1290;22551;-77
2022/05/05 00:04:19;;;;;;;5.80;2.90;;;;;;;10.78;35.51;100857.93;105561;1290;22947;-76
2022/05/05 00:06:46;;;;;;;11.20;3.00;;;;;;;10.73;35.57;100860.23;104910;1291;25355;-74
2022/05/05 00:09:13;;;;;;;5.10;2.80;;;;;;;10.67;35.42;100857.96;104695;1291;24311;-76
2022/05/05 00:14:32;;;;;;;6.00;2.70;;;;;;;10.57;35.87;100860.45;104500;1290;22499;-75
2022/05/05 00:17:02;;;;;;;4.50;2.70;;;;;;;10.53;35.86;100858.86;104092;1290;24338;-74
2022/05/05 00:19:32;;;;;;;4.50;2.50;;;;;;;10.47;35.97;100857.80;104538;1291;22520;-75
2022/05/05 00:22:00;;;;;;;4.60;2.40;;;;;;;10.37;36.08;100861.14;103667;1299;22557;-74
2022/05/05 00:24:27;;;;;;;6.40;2.60;;;;;;;10.34;36.15;100857.27;104089;1296;22563;-80
2022/05/05 00:26:54;;;;;;;6.10;2.80;;;;;;;10.34;36.32;100855.50;104010;1296;22694;-79
2022/05/05 00:29:21;;;;;;;5.40;2.60;;;;;;;10.31;36.45;100855.16;104144;1296;22559;-79
2022/05/05 00:31:49;;;;;;;5.00;2.70;;;;;;;10.31;36.68;100851.63;103558;1299;23898;-76
2022/05/05 00:34:17;;;;;;;4.20;3.00;;;;;;;10.35;36.81;100851.27;103501;1299;25689;-80
2022/05/05 00:36:44;;;;;;;6.80;3.10;;;;;;;10.37;36.70;100852.16;103891;1299;23975;-74
2022/05/05 00:39:12;;;;;;;5.90;3.40;;;;;;;10.31;36.59;100850.93;103843;1299;25376;-77
2022/05/05 00:41:46;;;;;;;3.90;2.70;;;;;;;10.25;36.79;100852.52;104094;1296;25556;-74
2022/05/05 00:44:14;;;;;;;4.00;2.50;;;;;;;10.28;36.87;100855.52;103786;1296;22576;-72
2022/05/05 00:46:51;;;;;;;7.10;2.90;;;;;;;10.25;36.80;100854.28;103982;1296;22578;-77
2022/05/05 00:49:19;;;;;;;5.50;2.70;;;;;;;10.21;37.00;100853.21;103990;1296;26526;-71
2022/05/05 00:51:46;;;;;;;4.50;2.90;;;;;;;10.19;37.00;100857.63;104606;1293;25322;-72
2022/05/05 00:54:13;;;;;;;5.60;2.80;;;;;;;10.19;37.17;100857.45;104592;1290;22731;-75
2022/05/05 00:56:45;;;;;;;6.50;3.00;;;;;;;10.22;37.21;100858.49;104504;1291;22816;-72
2022/05/05 00:59:13;;;;;;;8.50;2.70;;;;;;;10.21;37.24;100855.14;104361;1293;23952;-72
2022/05/05 01:01:40;;;;;;;5.60;2.80;;;;;;;10.19;37.25;100850.92;104615;1290;24294;-73
2022/05/05 01:04:07;;;;;;;5.10;2.60;;;;;;;10.21;37.45;100852.34;104542;1290;25420;-79
2022/05/05 01:06:35;;;;;;;5.30;2.40;;;;;;;10.24;37.52;100856.73;104066;1293;22556;-74
2022/05/05 01:09:06;;;;;;;4.10;2.50;;;;;;;10.25;37.54;100854.09;104229;1290;24243;-77
2022/05/05 01:11:33;;;;;;;4.20;2.70;;;;;;;10.17;37.37;100845.46;104521;1290;22581;-77
2022/05/05 01:14:00;;;;;;;4.80;2.80;;;;;;;10.10;37.42;100848.29;104520;1290;25334;-75
2022/05/05 01:16:29;;;;;;;6.50;2.80;;;;;;;10.08;37.70;100852.16;104489;1291;22580;-76
2022/05/05 01:18:56;;;;;;;7.30;3.10;;;;;;;10.10;37.64;100853.58;104829;1290;22621;-76
2022/05/05 01:21:24;;;;;;;4.50;2.80;;;;;;;10.10;37.60;100852.86;104876;1293;25515;-77
2022/05/05 01:23:51;;;;;;;4.80;2.50;;;;;;;10.10;37.62;100855.86;104491;1294;23081;-82
2022/05/05 01:29:06;;;;;;;9.80;2.40;;;;;;;10.07;37.80;100847.41;104226;1293;24684;-75
2022/05/05 01:31:33;;;;;;;5.00;3.00;;;;;;;10.10;37.78;100850.94;104547;1293;22719;-76
2022/05/05 01:34:00;;;;;;;7.20;3.30;;;;;;;10.11;37.90;100850.23;104573;1294;26744;-75
2022/05/05 01:36:27;;;;;;;8.10;3.80;;;;;;;10.14;37.84;100853.57;104566;1290;25369;-76
2022/05/05 01:38:54;;;;;;;4.30;2.50;;;;;;;10.16;37.93;100850.76;104116;1290;25276;-73
2022/05/05 01:41:21;;;;;;;7.50;2.90;;;;;;;10.19;37.94;100850.41;104638;1290;22556;-74
2022/05/05 01:43:49;;;;;;;6.80;2.70;;;;;;;10.21;37.85;100855.16;104122;1296;22983;-74
2022/05/05 01:46:16;;;;;;;5.80;2.70;;;;;;;10.22;37.90;100854.27;104400;1294;22592;-75
2022/05/05 01:48:43;;;;;;;6.70;2.70;;;;;;;10.17;37.82;100854.46;103846;1297;25386;-75
2022/05/05 01:51:10;;;;;;;4.50;2.60;;;;;;;10.16;37.97;100854.45;103990;1297;24288;-75
2022/05/05 01:53:37;;;;;;;6.00;2.40;;;;;;;10.17;37.98;100854.80;104032;1297;22586;-74
2022/05/05 01:56:07;;;;;;;7.60;2.80;;;;;;;10.19;37.91;100855.50;104008;1297;24310;-74
2022/05/05 01:58:34;;;;;;;4.00;2.20;;;;;;;10.18;37.90;100852.52;104025;1296;22722;-76
2022/05/05 02:01:01;;;;;;;3.80;2.70;;;;;;;10.20;37.91;100853.57;104036;1297;22579;-77
2022/05/05 02:03:28;;;;;;;2.50;2.20;;;;;;;10.22;37.89;100851.98;104062;1297;25441;-76
2022/05/05 02:05:55;;;;;;;4.00;2.60;;;;;;;10.19;37.77;100852.16;103715;1299;22654;-77
2022/05/05 02:08:22;;;;;;;3.00;2.20;;;;;;;10.16;37.90;100859.56;104456;1291;22561;-75
2022/05/05 02:10:49;;;;;;;5.70;2.50;;;;;;;10.12;37.76;100855.50;104442;1294;26519;-74
2022/05/05 02:13:16;;;;;;;4.60;2.70;;;;;;;10.07;37.95;100854.80;104308;1293;22556;-76
2022/05/05 02:15:43;;;;;;;6.70;2.30;;;;;;;10.07;37.89;100847.95;104429;1293;25375;-77
2022/05/05 02:18:12;;;;;;;5.20;2.80;;;;;;;10.08;37.90;100848.65;104224;1294;25230;-73
2022/05/05 02:20:40;;;;;;;5.60;2.70;;;;;;;10.11;37.75;100848.30;104580;1290;24013;-73
2022/05/05 02:23:08;;;;;;;7.00;2.40;;;;;;;10.12;37.93;100851.27;104227;1292;25567;-77
2022/05/05 02:25:36;;;;;;;7.00;2.70;;;;;;;10.14;37.79;100847.41;104647;1290;22573;-77
2022/05/05 02:28:04;;;;;;;6.70;2.70;;;;;;;10.14;37.82;100844.42;104601;1291;25509;-74
2022/05/05 02:30:31;;;;;;;3.80;2.20;;;;;;;10.15;37.73;100847.77;104570;1291;22576;-77
2022/05/05 02:32:58;;;;;;;4.30;2.50;;;;;;;10.12;37.69;100844.07;104262;1293;22687;-78
2022/05/05 02:35:25;;;;;;;4.30;2.10;;;;;;;10.14;37.88;100840.02;104515;1292;24437;-71
2022/05/05 02:40:40;;;;;;;3.20;2.40;;;;;;;10.15;37.94;100838.27;104748;1290;24740;-78
2022/05/05 02:43:06;;;;;;;7.50;2.50;;;;;;;10.18;37.87;100840.54;104807;1290;25220;-76
2022/05/05 02:45:34;;;;;;;4.80;2.50;;;;;;;10.21;37.83;100839.32;104603;1290;25445;-75
2022/05/05 02:48:01;;;;;;;4.20;2.40;;;;;;;10.20;37.70;100841.08;104376;1291;25236;-76
2022/05/05 02:50:29;;;;;;;5.70;2.50;;;;;;;10.20;37.80;100838.26;104680;1290;25853;-74
2022/05/05 02:52:55;;;;;;;4.60;2.40;;;;;;;10.20;37.78;100837.02;104700;1290;25416;-73
2022/05/05 02:55:23;;;;;;;5.80;2.60;;;;;;;10.18;37.83;100840.02;103897;1297;25331;-73
2022/05/05 02:57:51;;;;;;;4.40;2.50;;;;;;;10.14;37.84;100835.79;103708;1297;23975;-73
2022/05/05 03:00:20;;;;;;;5.80;2.50;;;;;;;10.13;37.63;100840.02;103332;1303;24481;-79
2022/05/05 03:02:48;;;;;;;3.60;2.50;;;;;;;10.14;37.73;100840.20;103368;1303;25534;-73
2022/05/05 03:05:15;;;;;;;7.10;2.40;;;;;;;10.15;37.90;100841.96;104151;1303;25414;-73
2022/05/05 03:07:42;;;;;;;6.60;2.60;;;;;;;10.11;37.91;100846.17;103635;1308;23281;-74
2022/05/05 03:10:11;;;;;;;8.70;2.30;;;;;;;10.12;37.84;100841.60;103163;1313;22836;-75
2022/05/05 03:12:38;;;;;;;6.20;2.20;;;;;;;10.11;37.96;100842.65;104203;1313;23309;-75
2022/05/05 03:15:07;;;;;;;5.90;2.50;;;;;;;10.14;38.05;100848.11;104737;1305;24451;-75
2022/05/05 03:17:35;;;;;;;4.70;2.10;;;;;;;10.13;37.61;100848.82;103453;1305;24141;-75
2022/05/05 03:20:04;;;;;;;5.10;2.60;;;;;;;10.08;37.55;100847.94;103727;1299;23203;-75
2022/05/05 03:22:31;;;;;;;5.50;2.40;;;;;;;10.05;37.47;100850.93;103642;1300;24280;-74
2022/05/05 03:24:58;;;;;;;4.80;2.20;;;;;;;10.04;37.54;100841.61;103547;1300;22743;-75
2022/05/05 03:27:25;;;;;;;6.30;2.10;;;;;;;10.10;37.53;100847.06;103790;1299;23072;-72
2022/05/05 03:29:52;;;;;;;3.20;2.50;;;;;;;10.06;37.53;100842.84;104305;1293;22663;-74
2022/05/05 03:32:20;;;;;;;4.00;2.50;;;;;;;10.05;37.63;100844.24;104166;1293;22562;-75
2022/05/05 03:34:47;;;;;;;3.40;2.30;;;;;;;10.05;37.47;100844.07;104464;1293;23995;-81
2022/05/05 03:37:15;;;;;;;9.30;2.60;;;;;;;10.05;37.51;100850.40;104350;1290;22593;-77
2022/05/05 03:39:42;;;;;;;5.50;1.80;;;;;;;10.06;37.55;100850.23;104465;1290;22556;-75
2022/05/05 03:42:09;;;;;;;4.50;2.40;;;;;;;10.08;37.49;100850.40;104357;1293;25587;-73
2022/05/05 03:44:37;;;;;;;4.20;2.60;;;;;;;10.11;37.70;100852.88;104040;1296;22579;-71
2022/05/05 03:47:04;;;;;;;8.30;3.40;;;;;;;10.10;37.47;100857.98;104084;1296;22576;-72
2022/05/05 03:49:31;;;;;;;6.50;3.00;;;;;;;10.10;37.51;100860.80;103848;1296;26716;-73
2022/05/05 03:51:58;;;;;;;9.00;2.80;;;;;;;10.13;37.70;100856.21;103945;1296;22938;-71
2022/05/05 03:54:26;;;;;;;6.10;2.30;;;;;;;10.20;37.72;100858.85;104100;1296;22659;-73
2022/05/05 03:56:53;;;;;;;7.60;2.60;;;;;;;10.24;37.57;100858.84;103812;1297;24265;-71
2022/05/05 03:59:20;;;;;;;7.10;2.20;;;;;;;10.22;37.44;100856.20;103911;1296;24261;-76
2022/05/05 04:01:47;;;;;;;3.40;2.20;;;;;;;10.24;37.71;100858.14;104054;1296;24364;-75
2022/05/05 04:04:15;;;;;;;7.30;2.60;;;;;;;10.26;37.79;100863.42;104312;1294;22681;-74
2022/05/05 04:06:42;;;;;;;6.10;2.80;;;;;;;10.27;38.00;100867.12;104155;1294;24422;-76
2022/05/05 04:09:10;;;;;;;6.50;2.80;;;;;;;10.30;37.63;100866.23;104354;1294;22630;-74
2022/05/05 04:11:37;;;;;;;4.70;2.70;;;;;;;10.29;37.73;100866.59;104428;1293;22538;-76
2022/05/05 04:14:04;;;;;;;4.60;2.60;;;;;;;10.32;37.84;100863.77;104107;1296;22634;-73
2022/05/05 04:16:31;;;;;;;4.70;2.40;;;;;;;10.30;37.51;100863.95;104375;1293;22586;-75
2022/05/05 04:19:01;;;;;;;6.50;2.90;;;;;;;10.29;37.74;100867.65;104427;1293;22582;-74
2022/05/05 04:21:28;;;;;;;5.80;3.00;;;;;;;10.34;37.88;100868.71;104318;1293;22812;-79
2022/05/05 04:23:54;;;;;;;3.40;2.60;;;;;;;10.35;37.48;100864.30;104402;1290;22760;-81
2022/05/05 04:26:22;;;;;;;4.10;2.40;;;;;;;10.34;37.37;100860.77;104598;1290;24653;-87
2022/05/05 04:28:50;;;;;;;5.40;2.70;;;;;;;10.29;37.24;100856.04;104493;1291;22557;-87
2022/05/05 04:31:19;;;;;;;6.10;3.30;;;;;;;10.27;37.43;100860.27;104338;1291;25295;-85
2022/05/05 04:33:46;;;;;;;9.70;2.80;;;;;;;10.26;37.48;100860.98;104677;1290;22585;-86
2022/05/05 04:36:15;;;;;;;3.20;2.60;;;;;;;10.33;37.49;100865.88;104576;1290;22700;-83
2022/05/05 04:38:42;;;;;;;6.40;2.40;;;;;;;10.36;37.35;100867.13;105015;1290;22560;-84
2022/05/05 04:41:09;;;;;;;4.60;2.80;;;;;;;10.38;37.14;100867.82;104688;1290;24249;-84
2022/05/05 04:43:36;;;;;;;8.30;3.00;;;;;;;10.37;37.18;100867.29;104529;1290;22506;-83
2022/05/05 04:46:03;;;;;;;10.40;3.00;;;;;;;10.38;37.16;100866.77;104399;1293;25282;-85
2022/05/05 04:48:30;;;;;;;9.50;3.20;;;;;;;10.40;37.04;100868.17;104695;1293;22541;-84
2022/05/05 04:50:57;;;;;;;5.10;2.80;;;;;;;10.37;36.85;100867.48;105187;1290;22633;-83
2022/05/05 04:53:24;;;;;;;8.40;2.90;;;;;;;10.35;36.92;100866.06;105008;1290;23564;-79
2022/05/05 04:55:51;;;;;;;7.40;2.90;;;;;;;10.37;37.07;100867.13;105418;1290;22551;-88
2022/05/05 04:58:23;;;;;;;6.60;3.00;;;;;;;10.39;37.02;100866.40;105864;1290;22564;-78
2022/05/05 05:00:53;;;;;;;6.80;2.80;;;;;;;10.43;37.11;100863.42;104568;1290;244190;-80
2022/05/05 05:03:32;;;;;;;3.20;2.70;;;;;;;10.52;37.13;100865.90;104997;1291;22567;-81
2022/05/05 05:06:01;;;;;;;7.40;2.70;;;;;;;10.59;37.16;100865.18;105774;1290;22576;-80
2022/05/05 05:08:29;;;;;;;6.00;2.80;;;;;;;10.62;36.80;100861.48;104710;1290;23423;-83
2022/05/05 05:10:57;;;;;;;6.60;2.70;;;;;;;10.68;36.82;100860.61;104184;1291;22604;-81
2022/05/05 05:13:24;;;;;;;10.40;2.90;;;;;;;10.73;36.98;100866.58;104774;1293;22599;-79
2022/05/05 05:15:52;;;;;;;10.90;2.90;;;;;;;10.78;36.96;100868.33;104392;1293;24068;-82
2022/05/05 05:18:19;;;;;;;7.30;3.00;;;;;;;10.84;36.87;100872.53;104636;1294;22768;-80
2022/05/05 05:20:46;;;;;;;3.40;2.60;;;;;;;10.85;36.61;100871.65;104576;1290;22574;-82
2022/05/05 05:23:14;;;;;;;8.60;3.20;;;;;;;10.87;36.70;100869.00;104647;1290;22548;-83
2022/05/05 05:25:41;;;;;;;5.00;2.90;;;;;;;10.89;36.77;100871.30;104884;1290;22585;-82
2022/05/05 05:28:08;;;;;;;5.30;3.00;;;;;;;10.93;36.77;100871.45;105006;1290;25257;-81
2022/05/05 05:30:39;;;;;;;7.30;3.40;;;;;;;10.98;36.71;100877.62;104952;1290;22564;-82
2022/05/05 05:33:07;;;;;;;6.90;2.90;;;;;;;10.98;36.76;100876.73;105387;1290;24255;-81
2022/05/05 05:35:34;;;;;;;6.10;3.10;;;;;;;11.00;36.82;100878.48;104914;1291;22552;-80
2022/05/05 05:38:02;;;;;;;5.10;3.10;;;;;;;11.04;36.82;100876.01;105702;1290;24229;-81
2022/05/05 05:40:30;;;;;;;7.30;3.00;;;;;;;11.12;37.00;100876.16;105525;1290;24256;-81
2022/05/05 05:42:57;;;;;;;5.40;2.60;;;;;;;11.20;37.22;100872.60;106069;1290;22644;-85
2022/05/05 05:45:24;;;;;;;5.00;2.50;;;;;;;11.31;37.03;100882.96;106200;1290;22496;-84
2022/05/05 05:47:51;;;;;;;4.90;3.00;;;;;;;11.32;36.69;100885.25;106262;1290;22548;-83
2022/05/05 05:50:18;;;;;;;6.30;3.30;;;;;;;11.39;36.93;100884.52;106216;1290;22570;-84
2022/05/05 05:52:46;;;;;;;4.30;2.90;;;;;;;11.50;37.14;100883.21;106462;1290;22589;-84
2022/05/05 05:55:16;;;;;;;7.20;3.10;;;;;;;11.60;37.10;100883.02;106299;1290;24246;-85
2022/05/05 05:57:43;;;;;;;5.00;2.90;;;;;;;11.68;36.89;100881.01;106433;1290;22632;-84
2022/05/05 06:00:10;;;;;;;8.60;2.90;;;;;;;11.76;37.02;100882.38;106682;1290;25753;-84
2022/05/05 06:05:23;;;;;;;13.50;3.20;;;;;;;11.97;37.33;100877.64;106650;1290;22719;-85
2022/05/05 06:07:50;;;;;;;5.00;3.10;;;;;;;12.05;37.48;100873.73;106682;1291;24259;-83
2022/05/05 06:10:18;;;;;;;8.80;3.30;;;;;;;12.12;37.27;100877.05;106214;1291;22965;-83
2022/05/05 06:12:46;;;;;;;6.70;2.80;;;;;;;12.18;37.07;100874.70;106930;1290;22574;-84
2022/05/05 06:15:13;;;;;;;8.30;2.90;;;;;;;12.25;37.38;100876.06;107195;1290;22576;-83
2022/05/05 06:17:40;;;;;;;5.10;3.20;;;;;;;12.32;37.06;100873.53;106907;1290;22566;-83
2022/05/05 06:20:08;;;;;;;5.70;3.00;;;;;;;12.36;37.07;100878.09;107427;1290;22636;-85
2022/05/05 06:22:37;;;;;;;8.90;3.20;;;;;;;12.48;37.05;100880.98;107591;1290;22918;-82
2022/05/05 06:25:06;;;;;;;5.30;3.00;;;;;;;12.59;37.05;100887.95;106923;1290;22952;-84
2022/05/05 06:27:34;;;;;;;6.40;2.80;;;;;;;12.70;37.15;100887.84;106922;1290;22507;-82
2022/05/05 06:30:02;;;;;;;6.70;3.40;;;;;;;12.75;37.04;100882.67;105818;1290;25342;-86
2022/05/05 06:32:29;;;;;;;6.70;3.10;;;;;;;12.87;37.21;100883.43;105372;1290;24220;-83
2022/05/05 06:34:56;;;;;;;7.20;3.10;;;;;;;12.97;37.24;100881.73;104756;1296;25367;-86
2022/05/05 06:37:24;;;;;;;8.00;3.20;;;;;;;13.02;37.02;100879.37;104309;1294;22578;-87
2022/05/05 06:39:52;;;;;;;6.40;2.70;;;;;;;13.08;37.11;100878.42;104643;1300;22708;-85
2022/05/05 06:42:20;;;;;;;9.70;3.00;;;;;;;13.10;36.87;100881.23;105140;1300;22572;-85
2022/05/05 06:44:47;;;;;;;4.70;2.90;;;;;;;13.16;36.97;100886.10;105398;1299;23995;-86
2022/05/05 06:47:14;;;;;;;5.40;3.00;;;;;;;13.24;36.90;100880.70;105000;1299;22727;-84
2022/05/05 06:49:41;;;;;;;6.80;2.70;;;;;;;13.29;36.81;100882.59;104126;1300;24291;-86
2022/05/05 06:52:08;;;;;;;5.90;3.20;;;;;;;13.34;36.81;100880.23;103971;1299;25267;-86
2022/05/05 06:54:55;;;;;;;7.20;2.70;;;;;;;13.44;36.54;100878.87;104314;1294;22555;-82
2022/05/05 06:57:26;;;;;;;9.20;3.10;;;;;;;13.52;36.82;100882.52;104520;1290;24107;-84
2022/05/05 06:59:53;;;;;;;5.40;3.10;;;;;;;13.62;36.94;100886.26;104713;1291;22725;-86
2022/05/05 07:02:20;;;;;;;5.80;3.00;;;;;;;13.67;36.63;100885.49;104921;1290;25627;-87
2022/05/05 07:07:33;;;;;;;11.60;3.30;;;;;;;13.80;36.88;100895.73;105074;1290;24249;-87
2022/05/05 07:12:46;;;;;;;9.50;3.20;;;;;;;13.95;36.78;100899.26;104190;1296;22570;-85
2022/05/05 07:15:13;;;;;;;8.50;3.30;;;;;;;14.01;36.53;100897.56;104268;1296;22586;-88
2022/05/05 07:17:41;;;;;;;8.10;3.00;;;;;;;14.09;36.38;100897.09;104260;1296;23445;-86
2022/05/05 07:20:09;;;;;;;6.20;3.40;;;;;;;14.18;36.55;100894.30;104064;1296;22564;-84
2022/05/05 07:22:36;;;;;;;5.10;3.00;;;;;;;14.29;36.54;100894.64;104002;1296;22582;-87
2022/05/05 07:25:03;;;;;;;6.20;3.40;;;;;;;14.36;36.52;100893.11;103996;1296;22699;-88
2022/05/05 07:27:30;;;;;;;8.70;5.60;;;;;;;14.47;36.69;100891.33;103831;1302;24291;-86
2022/05/05 07:29:57;;;;;;;10.30;4.40;;;;;;;14.59;36.62;100889.90;103995;1300;23130;-86
2022/05/05 07:32:24;;;;;;;8.00;3.60;;;;;;;14.70;36.17;100891.83;104398;1294;22728;-87
2022/05/05 07:34:54;;;;;;;5.40;3.30;;;;;;;14.77;36.04;100892.39;104292;1293;22654;-88
2022/05/05 07:37:21;;;;;;;12.00;3.40;;;;;;;14.84;35.96;100882.02;104503;1294;22803;-87
2022/05/05 07:39:48;;;;;;;6.70;3.50;;;;;;;14.90;36.04;100884.57;105820;1293;22556;-89
2022/05/05 07:42:16;;;;;;;5.70;3.00;;;;;;;15.00;36.14;100885.27;104526;1294;22502;-87
2022/05/05 07:44:43;;;;;;;5.60;2.80;;;;;;;15.09;36.23;100885.44;104749;1294;23114;-83
2022/05/05 07:47:10;;;;;;;6.20;2.90;;;;;;;15.19;36.02;100885.60;105450;1290;22626;-83
2022/05/05 07:49:37;;;;;;;6.20;3.30;;;;;;;15.24;36.06;100884.26;105402;1290;23953;-86
2022/05/05 07:52:04;;;;;;;7.90;2.80;;;;;;;15.31;35.91;100891.02;105077;1290;25543;-83
2022/05/05 07:54:34;;;;;;;6.70;2.80;;;;;;;15.29;35.59;100883.96;105379;1290;22582;-84
2022/05/05 07:57:02;;;;;;;6.20;2.90;;;;;;;15.29;35.76;100880.05;105252;1290;23966;-86
2022/05/05 07:59:30;;;;;;;6.90;3.50;;;;;;;15.31;35.79;100879.49;104918;1290;22969;-85
2022/05/05 08:01:57;;;;;;;6.80;2.90;;;;;;;15.30;35.84;100883.61;105059;1290;25505;-85
2022/05/05 08:04:24;;;;;;;9.30;3.00;;;;;;;15.34;35.87;100885.64;104752;1290;25280;-82
2022/05/05 08:06:52;;;;;;;6.40;3.40;;;;;;;15.41;35.82;100888.17;104845;1290;24392;-88
2022/05/05 08:09:19;;;;;;;7.40;2.90;;;;;;;15.47;35.77;100881.46;104836;1290;24252;-86
2022/05/05 08:12:00;;;;;;;5.00;3.00;;;;;;;15.56;36.05;100881.27;104448;1296;24302;-86
2022/05/05 08:14:28;;;;;;;5.50;2.90;;;;;;;15.70;36.19;100879.54;104187;1293;25375;-85
2022/05/05 08:16:55;;;;;;;7.10;2.80;;;;;;;15.85;36.12;100877.43;104493;1294;26591;-87
2022/05/05 08:19:23;;;;;;;6.20;3.00;;;;;;;15.88;35.92;100882.16;104413;1293;22781;-85
2022/05/05 08:21:50;;;;;;;5.20;2.70;;;;;;;15.87;35.74;100879.34;104734;1293;23484;-85
2022/05/05 08:30:09;;;;;;;7.90;3.10;;;;;;;15.89;35.85;100880.17;104579;1290;22497;-86
2022/05/05 08:32:37;;;;;;;4.50;2.70;;;;;;;16.01;36.07;100878.66;104841;1290;25273;-84
2022/05/05 08:35:04;;;;;;;6.60;3.10;;;;;;;16.17;35.98;100877.05;104981;1290;22591;-87
2022/05/05 08:37:31;;;;;;;5.20;2.70;;;;;;;16.33;35.90;100871.34;104967;1291;24100;-86
2022/05/05 08:39:58;;;;;;;5.40;3.00;;;;;;;16.45;35.69;100870.33;104762;1291;24329;-86
2022/05/05 08:42:26;;;;;;;6.70;3.80;;;;;;;16.61;35.76;100870.96;105045;1290;26528;-86
2022/05/05 08:44:53;;;;;;;4.60;3.10;;;;;;;16.70;35.25;100870.38;104825;1291;26525;-86
2022/05/05 08:47:24;;;;;;;5.20;2.80;;;;;;;16.70;35.24;100867.70;105131;1290;24252;-85
2022/05/05 08:49:58;;;;;;;9.90;3.20;;;;;;;16.77;35.21;100866.82;104722;1290;22984;-85
2022/05/05 08:52:31;;;;;;;4.70;3.00;;;;;;;16.82;35.26;100866.48;104538;1291;25287;-86
2022/05/05 08:54:58;;;;;;;7.10;3.20;;;;;;;16.92;35.27;100865.70;105072;1288;25292;-86
2022/05/05 08:57:25;;;;;;;6.20;3.20;;;;;;;17.04;35.38;100865.73;105398;1291;22737;-84
2022/05/05 08:59:55;;;;;;;9.30;3.50;;;;;;;17.16;35.40;100863.08;106355;1290;22511;-85
2022/05/05 09:02:22;;;;;;;12.20;3.40;;;;;;;17.29;35.28;100863.95;106308;1290;26482;-85
2022/05/05 09:04:49;;;;;;;4.20;3.00;;;;;;;17.44;35.33;100860.66;105088;1290;22677;-85
2022/05/05 09:07:16;;;;;;;6.60;2.80;;;;;;;17.53;34.92;100862.89;105067;1290;24184;-83
2022/05/05 09:09:48;;;;;;;4.80;2.40;;;;;;;17.64;35.20;100863.45;105066;1290;22645;-87
2022/05/05 09:12:17;;;;;;;8.00;2.90;;;;;;;17.79;35.11;100865.64;105140;1290;25285;-87
2022/05/05 09:14:53;;;;;;;7.30;2.80;;;;;;;17.92;34.84;100865.05;104995;1290;25264;-83
2022/05/05 09:17:24;;;;;;;9.50;2.80;;;;;;;18.06;34.42;100867.98;104707;1290;22522;-87
2022/05/05 09:19:56;;;;;;;6.30;2.60;;;;;;;18.14;34.08;100860.11;105007;1290;22868;-86
2022/05/05 09:22:27;;;;;;;5.80;2.70;;;;;;;18.28;34.38;100857.48;106034;1295;22716;-86
2022/05/05 09:24:56;;;;;;;3.80;2.40;;;;;;;18.45;34.10;100856.22;106872;1296;22664;-84
2022/05/05 09:27:29;;;;;;;4.10;2.60;;;;;;;18.56;34.17;100858.69;106707;1296;22681;-85
2022/05/05 09:30:02;;;;;;;4.30;2.30;;;;;;;18.78;34.10;100848.46;106650;1296;22635;-85
2022/05/05 09:32:31;;;;;;;4.40;2.30;;;;;;;18.96;34.05;100855.64;107221;1296;22984;-85
2022/05/05 09:35:02;;;;;;;6.50;2.30;;;;;;;19.18;33.59;100858.82;106986;1295;22738;-86
2022/05/05 09:37:32;;;;;;;4.10;2.30;;;;;;;19.30;33.33;100856.21;106631;1296;22595;-86
2022/05/05 09:40:02;;;;;;;8.10;2.20;;;;;;;19.46;33.03;100853.66;105893;1294;22606;-88
2022/05/05 09:42:34;;;;;;;5.80;2.20;;;;;;;19.62;32.55;100852.86;105903;1291;22602;-85
2022/05/05 09:45:19;;;;;;;6.00;2.30;;;;;;;19.78;32.72;100854.36;105004;1293;24443;-86
2022/05/05 09:47:51;;;;;;;4.00;2.30;;;;;;;20.01;32.77;100856.49;104538;1294;24344;-87
2022/05/05 09:50:23;;;;;;;3.50;2.10;;;;;;;20.16;32.26;100847.14;105434;1293;22586;-86
2022/05/05 09:58:26;;;;;;;4.70;2.40;;;;;;;20.33;31.44;100846.61;104916;1291;25469;-87
2022/05/05 10:06:23;;;;;;;2.40;2.00;;;;;;;20.55;30.65;100840.10;104445;1296;22622;-85
2022/05/05 10:08:56;;;;;;;3.80;2.20;;;;;;;20.66;30.59;100836.23;104277;1296;22904;-87
2022/05/05 10:11:23;;;;;;;4.80;1.80;;;;;;;20.71;30.20;100841.75;104205;1296;22580;-87
2022/05/05 10:13:51;;;;;;;3.40;1.90;;;;;;;20.76;30.36;100842.23;104191;1295;26172;-85
2022/05/05 10:16:19;;;;;;;7.00;2.40;;;;;;;20.84;29.94;100836.86;104201;1296;25283;-87
2022/05/05 10:18:47;;;;;;;4.50;2.10;;;;;;;20.93;29.98;100833.24;104489;1290;22896;-85
2022/05/05 10:21:39;;;;;;;2.90;2.30;;;;;;;21.08;29.72;100833.51;105043;1290;25279;-85
2022/05/05 10:24:06;;;;;;;4.00;1.90;;;;;;;21.21;29.07;100829.52;104335;1296;24024;-86
2022/05/05 10:26:34;;;;;;;4.90;1.80;;;;;;;21.25;29.44;100824.99;104390;1293;22581;-86
2022/05/05 10:29:02;;;;;;;3.80;2.00;;;;;;;21.37;29.19;100822.31;104391;1293;22626;-87
2022/05/05 10:31:37;;;;;;;3.70;1.90;;;;;;;21.50;28.92;100824.17;104394;1293;24253;-87
2022/05/05 10:34:08;;;;;;;5.10;1.60;;;;;;;21.61;28.60;100818.64;104506;1294;25385;-87
2022/05/05 10:36:36;;;;;;;3.60;1.80;;;;;;;21.71;28.61;100813.86;104062;1299;25273;-84
2022/05/05 10:39:17;;;;;;;5.80;1.80;;;;;;;21.86;28.32;100819.25;104329;1299;22634;-87
2022/05/05 10:41:44;;;;;;;2.70;1.90;;;;;;;21.99;28.10;100824.17;104832;1297;24380;-87
2022/05/05 10:44:20;;;;;;;3.80;1.90;;;;;;;22.01;27.85;100808.80;105028;1296;22511;-87
2022/05/05 10:46:57;;;;;;;5.00;2.30;;;;;;;22.06;28.02;100807.14;105040;1296;24441;-86
2022/05/05 10:49:42;;;;;;;2.20;2.00;;;;;;;22.21;27.52;100809.25;105114;1296;22566;-85
2022/05/05 10:52:10;;;;;;;5.40;2.00;;;;;;;22.32;27.46;100806.36;106280;1295;22567;-86
2022/05/05 10:54:39;;;;;;;2.00;1.90;;;;;;;22.50;27.21;100809.23;104984;1290;22502;-87
2022/05/05 10:57:24;;;;;;;3.80;1.50;;;;;;;22.70;27.50;100806.02;105744;1290;22696;-86
2022/05/05 11:00:15;;;;;;;8.40;3.10;;;;;;;22.86;27.14;100805.20;105274;1289;25392;-86
2022/05/05 11:03:00;;;;;;;3.10;1.90;;;;;;;22.69;27.06;100798.02;105021;1290;24010;-86
2022/05/05 11:05:29;;;;;;;3.40;2.00;;;;;;;22.77;26.69;100806.73;104775;1290;22636;-86
2022/05/05 11:08:07;;;;;;;3.70;1.80;;;;;;;22.71;27.17;100797.89;105019;1290;22765;-84
2022/05/05 11:11:39;;;;;;;4.10;2.10;;;;;;;22.93;27.22;100790.42;105164;1290;24286;-87
2022/05/05 11:13:41;;;;;;;5.30;2.50;;;;;;;23.10;27.37;100801.55;105348;1290;22644;-89
2022/05/05 11:22:15;;;;;;;3.30;2.20;;;;;;;23.39;26.93;100798.32;105224;1290;25392;-86
2022/05/05 11:24:45;;;;;;;3.60;2.10;;;;;;;23.51;26.75;100797.35;105511;1290;22605;-86
2022/05/05 11:27:24;;;;;;;5.00;1.90;;;;;;;23.61;26.66;100797.15;105217;1290;22491;-84
2022/05/05 11:29:56;;;;;;;3.00;2.10;;;;;;;23.39;26.48;100796.70;105506;1290;22551;-85
2022/05/05 11:32:35;;;;;;;4.70;2.40;;;;;;;23.07;26.77;100796.54;105456;1290;23567;-87
2022/05/05 11:35:02;;;;;;;5.80;2.40;;;;;;;22.96;26.97;100794.96;105231;1291;22579;-86
2022/05/05 11:37:30;;;;;;;5.50;2.60;;;;;;;22.98;27.34;100797.15;105413;1290;22787;-86
2022/05/05 11:40:01;;;;;;;4.20;2.30;;;;;;;22.98;27.42;100798.09;105400;1291;22624;-86
2022/05/05 11:42:28;;;;;;;4.40;2.10;;;;;;;23.06;27.12;100793.34;105638;1290;22579;-87
2022/05/05 11:44:55;;;;;;;4.10;2.60;;;;;;;23.07;27.17;100785.39;105463;1290;25962;-87
2022/05/05 11:47:24;;;;;;;3.70;2.40;;;;;;;23.23;27.62;100788.23;105460;1291;22543;-85
2022/05/05 11:49:52;;;;;;;4.30;2.40;;;;;;;23.46;27.23;100792.59;105782;1290;26659;-86
2022/05/05 11:52:25;;;;;;;5.00;2.60;;;;;;;23.58;27.25;100792.63;106089;1290;25269;-86
2022/05/05 11:54:56;;;;;;;4.30;2.30;;;;;;;23.77;27.15;100787.02;107228;1290;22647;-86
2022/05/05 11:57:39;;;;;;;3.30;2.40;;;;;;;24.03;27.12;100783.36;107351;1290;22564;-85
2022/05/05 12:02:57;;;;;;;3.90;2.40;;;;;;;24.41;26.61;100778.93;107207;1290;22701;-87
2022/05/05 12:05:26;;;;;;;3.60;3.00;;;;;;;24.53;26.40;100776.24;107097;1296;22629;-86
2022/05/05 12:07:54;;;;;;;5.20;2.60;;;;;;;24.63;26.66;100770.80;107147;1296;22448;-87